CSR4 weather

CLOSED Rimouski (Hydro-Québec) Heliport
Rimouski, Quebec, Canada

Public forecast

Using degrees Celsius for public forecast. Weather courtesy of forecast.io.

Closest aviation weather report (METAR) to Rimouski (Hydro-Québec) Heliport

Closest report is Mont Joli Airport, 16.7 nm (30.9 km) NE. Retrieved 2019/10/21 06:00 UTC (3 minutes ago):

CYYY 210600Z 16003KT 30SM BKN210 04/01 A3005 RMK CI5 SLP180

Closest aviation forecast (TAF) to Rimouski (Hydro-Québec) Heliport

Closest forecast is Mont Joli Airport, 16.7 nm (30.9 km) NE. Retrieved 2019-10-21 02:00 UTC (4 hours ago):

TAF CYYY 210138Z 2102/2114 VRB03KT P6SM SCT200 FM211200 13005KT P6SM BKN140 BECMG 2112/2114 25008KT RMK NXT FCST BY 210800Z